TAF KPBG
KPBG 090526Z 0906/1006 VRB03KT 4SM -SN BR OVC035 FM090800 VRB03KT P6SM VCSH OVC040 FM091600 32006KT P6SM SCT050 FM092300 00000KT P6SM BKN080 FM100500 15005KT P6SM OVC080=
METAR KPBG
WC KPBG
WS KPBG
WV KPBG